createdAt,value
2023-01-08T00:03:03.818Z,4.57
2023-01-08T00:08:11.042Z,4.52
2023-01-08T00:13:19.579Z,4.48
2023-01-08T00:18:27.705Z,4.48
2023-01-08T00:23:35.189Z,4.48
2023-01-08T00:28:44.227Z,4.47
2023-01-08T00:33:51.223Z,4.46
2023-01-08T00:38:58.484Z,4.39
2023-01-08T00:44:07.377Z,4.37
2023-01-08T00:49:14.016Z,4.32
2023-01-08T00:54:20.904Z,4.29
2023-01-08T00:59:29.411Z,4.26
2023-01-08T01:04:37.751Z,4.21
2023-01-08T01:09:45.112Z,4.18
2023-01-08T01:14:52.977Z,4.12
2023-01-08T01:19:59.445Z,4.06
2023-01-08T01:25:07.052Z,4.08
2023-01-08T01:30:15.683Z,4.04
2023-01-08T01:35:22.104Z,4.02
2023-01-08T01:40:28.898Z,4.03
2023-01-08T01:45:37.396Z,4.02
2023-01-08T01:50:48.812Z,3.96
2023-01-08T01:55:55.965Z,3.96
2023-01-08T02:01:08.360Z,3.92
2023-01-08T02:06:35.070Z,3.91
2023-01-08T02:12:10.816Z,3.84
2023-01-08T02:17:25.871Z,3.84
2023-01-08T02:22:49.675Z,3.84
2023-01-08T02:28:02.555Z,3.78
2023-01-08T02:33:09.701Z,3.78
2023-01-08T02:38:19.636Z,3.77
2023-01-08T02:43:32.605Z,3.73
2023-01-08T02:48:43.428Z,3.70
2023-01-08T02:53:53.957Z,3.61
2023-01-08T02:59:03.817Z,3.63
2023-01-08T03:04:16.234Z,3.58
2023-01-08T03:09:23.008Z,3.55
2023-01-08T03:14:37.379Z,3.53
2023-01-08T03:19:50.723Z,3.53
2023-01-08T03:25:00.687Z,3.54
2023-01-08T03:30:11.996Z,3.56
2023-01-08T03:35:23.770Z,3.58
2023-01-08T03:40:36.628Z,3.60
2023-01-08T03:45:51.077Z,3.59
2023-01-08T03:50:57.641Z,3.60
2023-01-08T03:56:04.720Z,3.63
2023-01-08T04:01:12.846Z,3.64
2023-01-08T04:06:19.371Z,3.64
2023-01-08T04:11:26.034Z,3.65
2023-01-08T04:16:36.483Z,3.63
2023-01-08T04:21:44.051Z,3.63
2023-01-08T04:26:50.750Z,3.59
2023-01-08T04:31:58.845Z,3.59
2023-01-08T04:37:05.747Z,3.58
2023-01-08T04:42:13.105Z,3.56
2023-01-08T04:47:21.383Z,3.57
2023-01-08T04:52:29.679Z,3.56
2023-01-08T04:57:36.314Z,3.52
2023-01-08T05:02:44.409Z,3.50
2023-01-08T05:07:50.980Z,3.48
2023-01-08T05:13:01.356Z,3.45
2023-01-08T05:18:09.644Z,3.42
2023-01-08T05:23:16.212Z,3.40
2023-01-08T05:28:22.566Z,3.36
2023-01-08T05:33:30.652Z,3.39
2023-01-08T05:38:37.056Z,3.39
2023-01-08T05:43:43.536Z,3.38
2023-01-08T05:48:51.655Z,3.35
2023-01-08T05:53:58.313Z,3.35
2023-01-08T05:59:05.071Z,3.32
2023-01-08T06:04:13.429Z,3.32
2023-01-08T06:09:20.730Z,3.35
2023-01-08T06:14:27.163Z,3.36
2023-01-08T06:19:35.171Z,3.35
2023-01-08T06:24:42.048Z,3.33
2023-01-08T06:29:49.081Z,3.33
2023-01-08T06:34:57.026Z,3.35
2023-01-08T06:40:03.928Z,3.34
2023-01-08T06:45:12.373Z,3.34
2023-01-08T06:50:22.035Z,3.36
2023-01-08T06:55:29.634Z,3.34
2023-01-08T07:00:36.430Z,3.36
2023-01-08T07:05:44.621Z,3.36
2023-01-08T07:10:51.393Z,3.35
2023-01-08T07:15:58.101Z,3.39
2023-01-08T07:21:08.129Z,3.38
2023-01-08T07:26:15.993Z,3.41
2023-01-08T07:31:22.671Z,3.40
2023-01-08T07:36:30.763Z,3.42
2023-01-08T07:41:37.666Z,3.43
2023-01-08T07:46:44.520Z,3.42
2023-01-08T07:51:53.708Z,3.38
2023-01-08T07:56:59.657Z,3.38
2023-01-08T08:02:07.005Z,3.40
2023-01-08T08:07:15.361Z,3.43
2023-01-08T08:12:22.018Z,3.42
2023-01-08T08:17:29.052Z,3.45
2023-01-08T08:22:37.305Z,3.47
2023-01-08T08:27:44.375Z,3.48
2023-01-08T08:32:51.038Z,3.51
2023-01-08T08:38:00.261Z,3.51
2023-01-08T08:43:07.367Z,3.48
2023-01-08T08:48:14.209Z,3.47
2023-01-08T08:53:22.517Z,3.50
2023-01-08T08:58:29.548Z,3.52
2023-01-08T09:03:42.639Z,3.54
2023-01-08T09:08:50.881Z,3.57
2023-01-08T09:13:57.946Z,3.59
2023-01-08T09:19:04.511Z,3.58
2023-01-08T09:24:13.576Z,3.62
2023-01-08T09:29:20.539Z,3.62
2023-01-08T09:34:27.163Z,3.65
2023-01-08T09:39:35.551Z,3.67
2023-01-08T09:44:47.362Z,3.66
2023-01-08T09:49:58.535Z,3.68
2023-01-08T09:55:15.126Z,3.74
2023-01-08T10:00:28.407Z,3.75
2023-01-08T10:05:35.239Z,3.77
2023-01-08T10:10:46.987Z,3.76
2023-01-08T10:15:54.796Z,3.75
2023-01-08T10:21:01.580Z,3.79
2023-01-08T10:26:10.130Z,3.84
2023-01-08T10:31:18.979Z,3.89
2023-01-08T10:36:29.115Z,3.91
2023-01-08T10:41:42.533Z,3.97
2023-01-08T10:46:52.260Z,3.98
2023-01-08T10:51:59.943Z,3.93
2023-01-08T10:57:27.473Z,3.98
2023-01-08T11:02:39.328Z,3.99
2023-01-08T11:07:53.680Z,4.03
2023-01-08T11:13:06.108Z,4.05
2023-01-08T11:18:22.459Z,4.11
2023-01-08T11:23:30.755Z,4.15
2023-01-08T11:28:56.765Z,4.17
2023-01-08T11:34:14.100Z,4.18
2023-01-08T11:39:21.453Z,4.20
2023-01-08T11:44:40.936Z,4.22
2023-01-08T11:50:12.724Z,4.27
2023-01-08T11:55:34.049Z,4.26
2023-01-08T12:01:13.324Z,4.28
2023-01-08T12:06:35.113Z,4.24
2023-01-08T12:11:53.802Z,4.27
2023-01-08T12:17:32.321Z,4.26
2023-01-08T12:22:51.511Z,4.24
2023-01-08T12:28:06.131Z,4.23
2023-01-08T12:33:21.506Z,4.23
2023-01-08T12:38:34.323Z,4.22
2023-01-08T12:43:52.369Z,4.18
2023-01-08T12:49:02.670Z,4.14
2023-01-08T12:54:21.481Z,4.14
2023-01-08T12:59:40.715Z,4.08
2023-01-08T13:04:50.359Z,4.07
2023-01-08T13:10:00.695Z,4.08
2023-01-08T13:15:10.190Z,4.06
2023-01-08T13:20:25.760Z,4.03
2023-01-08T13:25:35.679Z,4.03
2023-01-08T13:30:46.855Z,3.97
2023-01-08T13:36:08.634Z,3.91
2023-01-08T13:41:28.604Z,3.92
2023-01-08T13:46:41.776Z,3.88
2023-01-08T13:51:51.363Z,3.84
2023-01-08T13:57:12.977Z,3.79
2023-01-08T14:02:31.563Z,3.79
2023-01-08T14:07:44.285Z,3.72
2023-01-08T14:12:52.824Z,3.66
2023-01-08T14:18:00.509Z,3.67
2023-01-08T14:23:19.195Z,3.57
2023-01-08T14:28:26.113Z,3.56
2023-01-08T14:33:37.168Z,3.50
2023-01-08T14:38:50.628Z,3.49
2023-01-08T14:43:57.951Z,3.49
2023-01-08T14:49:05.046Z,3.46
2023-01-08T14:54:23.634Z,3.48
2023-01-08T14:59:35.401Z,3.45
2023-01-08T15:04:42.431Z,3.40
2023-01-08T15:10:01.659Z,3.41
2023-01-08T15:15:14.194Z,3.41
2023-01-08T15:20:24.272Z,3.40
2023-01-08T15:25:33.469Z,3.39
2023-01-08T15:30:46.861Z,3.40
2023-01-08T15:35:54.064Z,3.35
2023-01-08T15:41:02.567Z,3.36
2023-01-08T15:46:12.999Z,3.40
2023-01-08T15:51:20.032Z,3.40
2023-01-08T15:56:30.058Z,3.36
2023-01-08T16:01:37.499Z,3.38
2023-01-08T16:06:47.366Z,3.30
2023-01-08T16:11:56.540Z,3.36
2023-01-08T16:17:05.061Z,3.39
2023-01-08T16:22:13.551Z,3.36
2023-01-08T16:27:23.414Z,3.33
2023-01-08T16:32:30.925Z,3.36
2023-01-08T16:37:39.341Z,3.36
2023-01-08T16:42:49.713Z,3.33
2023-01-08T16:47:58.219Z,3.24
2023-01-08T16:53:05.882Z,3.19
2023-01-08T16:58:14.815Z,3.15
2023-01-08T17:03:22.261Z,3.15
2023-01-08T17:08:30.674Z,3.17
2023-01-08T17:13:40.617Z,3.18
2023-01-08T17:18:49.163Z,3.18
2023-01-08T17:23:56.407Z,3.18
2023-01-08T17:29:18.788Z,3.11
2023-01-08T17:34:27.424Z,3.13
2023-01-08T17:39:36.467Z,3.08
2023-01-08T17:44:47.225Z,3.10
2023-01-08T17:49:59.184Z,3.03
2023-01-08T17:55:08.371Z,3.00
2023-01-08T18:00:21.690Z,3.00
2023-01-08T18:05:30.909Z,3.01
2023-01-08T18:10:40.767Z,3.00
2023-01-08T18:15:50.388Z,3.04
2023-01-08T18:20:57.958Z,3.06
2023-01-08T18:26:08.241Z,3.09
2023-01-08T18:31:18.506Z,3.02
2023-01-08T18:36:27.140Z,3.06
2023-01-08T18:41:51.609Z,3.10
2023-01-08T18:47:00.974Z,3.10
2023-01-08T18:52:12.974Z,3.12
2023-01-08T18:57:22.726Z,3.14
2023-01-08T19:02:34.615Z,3.11
2023-01-08T19:07:44.658Z,3.11
2023-01-08T19:12:52.949Z,3.16
2023-01-08T19:18:06.241Z,3.17
2023-01-08T19:23:20.095Z,3.18
2023-01-08T19:28:27.915Z,3.16
2023-01-08T19:33:37.719Z,3.15
2023-01-08T19:38:52.954Z,3.16
2023-01-08T19:44:03.148Z,3.18
2023-01-08T19:49:16.990Z,3.17
2023-01-08T19:54:26.774Z,3.12
2023-01-08T19:59:35.332Z,3.17
2023-01-08T20:04:47.520Z,3.13
2023-01-08T20:09:55.545Z,3.13
2023-01-08T20:15:03.199Z,3.13
2023-01-08T20:20:16.428Z,3.15
2023-01-08T20:25:25.666Z,3.12
2023-01-08T20:30:35.221Z,3.12
2023-01-08T20:35:44.447Z,3.11
2023-01-08T20:40:55.468Z,3.10
2023-01-08T20:46:03.134Z,3.10
2023-01-08T20:51:14.363Z,3.10
2023-01-08T20:56:24.911Z,3.11
2023-01-08T21:01:34.573Z,3.09
2023-01-08T21:06:46.663Z,3.09
2023-01-08T21:11:55.136Z,3.07
2023-01-08T21:17:03.261Z,3.09
2023-01-08T21:22:12.351Z,3.07
2023-01-08T21:27:18.817Z,3.05
2023-01-08T21:32:27.323Z,3.03
2023-01-08T21:37:37.452Z,3.05
2023-01-08T21:43:01.588Z,3.08
2023-01-08T21:48:09.176Z,3.09
2023-01-08T21:53:36.581Z,3.08
2023-01-08T21:58:43.383Z,3.08
2023-01-08T22:03:50.224Z,3.08
2023-01-08T22:08:58.816Z,3.11
2023-01-08T22:14:07.301Z,3.09
2023-01-08T22:19:19.577Z,3.09
2023-01-08T22:24:27.979Z,3.08
2023-01-08T22:29:35.912Z,3.07
2023-01-08T22:34:47.546Z,3.09
2023-01-08T22:39:55.946Z,3.09
2023-01-08T22:45:02.589Z,3.06
2023-01-08T22:50:11.167Z,3.04
2023-01-08T22:55:19.647Z,3.04
2023-01-08T23:00:26.396Z,3.04
2023-01-08T23:05:33.016Z,3.06
2023-01-08T23:10:42.773Z,3.04
2023-01-08T23:15:49.669Z,3.00
2023-01-08T23:21:02.298Z,3.01
2023-01-08T23:26:14.569Z,3.03
2023-01-08T23:31:23.959Z,3.04
2023-01-08T23:36:30.501Z,3.06
2023-01-08T23:41:40.591Z,3.05
2023-01-08T23:46:47.523Z,3.05
2023-01-08T23:51:55.615Z,3.01
2023-01-08T23:57:06.437Z,3.02
